Time;durP1;ratioP1;P1;durP2;ratioP2;P2;SDS_P1;SDS_P2;PMS_P1;PMS_P2;Temp;Humidity;BMP_temperature;BMP_pressure;BME280_temperature;BME280_humidity;BME280_pressure;Samples;Min_cycle;Max_cycle;Signal;HPM_P1;HPM_P2
2023/03/26 00:00:24;;;;;;;51.67;31.67;;;14.30;99.90;;;;;;5052522;28;20496;-73
2023/03/26 00:03:28;;;;;;;48.30;31.38;;;10.50;99.90;;;;;;5051367;28;20055;-73
2023/03/26 00:06:37;;;;;;;69.80;39.10;;;13.60;99.90;;;;;;5052208;28;20048;-72
2023/03/26 00:09:42;;;;;;;67.38;39.58;;;;;;;;;;5051199;28;20033;-73
2023/03/26 00:12:47;;;;;;;49.00;32.05;;;;;;;;;;5051768;28;20051;-74
2023/03/26 00:15:51;;;;;;;47.58;31.27;;;14.20;99.90;;;;;;5051734;28;20048;-73
2023/03/26 00:18:56;;;;;;;48.97;31.30;;;14.00;99.90;;;;;;5052021;28;20062;-73
2023/03/26 00:22:02;;;;;;;47.13;30.92;;;;;;;;;;5051946;28;20531;-73
2023/03/26 00:25:06;;;;;;;50.80;32.70;;;12.70;99.90;;;;;;5051786;28;20048;-73
2023/03/26 00:28:12;;;;;;;51.17;31.92;;;;;;;;;;5051590;28;20051;-74
2023/03/26 00:31:16;;;;;;;48.60;29.35;;;15.20;99.90;;;;;;5051159;28;20048;-73
2023/03/26 00:34:21;;;;;;;42.53;29.23;;;;;;;;;;5052003;28;20075;-74
2023/03/26 00:37:26;;;;;;;40.97;29.35;;;12.30;99.90;;;;;;5050653;28;20040;-73
2023/03/26 00:40:30;;;;;;;44.40;28.83;;;;;;;;;;5051892;28;20044;-74
2023/03/26 00:43:35;;;;;;;35.75;27.02;;;13.70;99.90;;;;;;5050950;28;20500;-72
2023/03/26 00:46:39;;;;;;;35.72;26.10;;;;;;;;;;5050477;28;20066;-73
2023/03/26 00:49:45;;;;;;;42.50;27.58;;;;;;;;;;5051419;28;20040;-72
2023/03/26 00:52:50;;;;;;;44.08;29.50;;;;;;;;;;5051426;28;20409;-72
2023/03/26 00:55:59;;;;;;;52.45;33.05;;;;;;;;;;5050796;28;20044;-72
2023/03/26 00:59:03;;;;;;;55.75;35.97;;;;;;;;;;5050321;28;20048;-73
2023/03/26 01:02:10;;;;;;;40.15;25.60;;;13.40;99.90;;;;;;5051262;28;20044;-72
2023/03/26 01:05:51;;;;;;;36.92;25.25;;;13.40;99.90;;;;;;5050940;28;20040;-73
2023/03/26 01:08:59;;;;;;;44.38;26.60;;;13.40;99.90;;;;;;5050942;28;20048;-73
2023/03/26 01:12:07;;;;;;;37.60;25.70;;;13.50;99.90;;;;;;5051581;28;20227;-73
2023/03/26 01:15:12;;;;;;;44.63;28.38;;;;;;;;;;5050723;28;20068;-73
2023/03/26 01:18:19;;;;;;;48.88;29.80;;;13.20;99.90;;;;;;5050893;28;20044;-73
2023/03/26 01:21:28;;;;;;;43.25;28.02;;;13.10;99.90;;;;;;5050532;28;20040;-73
2023/03/26 01:24:33;;;;;;;44.42;28.20;;;;;;;;;;5050671;28;20400;-72
2023/03/26 01:27:39;;;;;;;45.10;28.67;;;;;;;;;;5049236;28;20364;-73
2023/03/26 01:31:08;;;;;;;42.08;28.17;;;13.10;99.90;;;;;;5050008;28;20044;-73
2023/03/26 01:34:48;;;;;;;41.55;29.60;;;12.90;99.90;;;;;;5050775;28;20052;-73
2023/03/26 01:38:17;;;;;;;42.83;27.85;;;12.90;99.90;;;;;;5050708;28;20048;-73
2023/03/26 01:41:36;;;;;;;41.17;29.40;;;12.60;99.90;;;;;;5049966;28;20056;-73
2023/03/26 01:44:47;;;;;;;43.67;28.17;;;12.70;99.90;;;;;;5049563;28;20508;-73
2023/03/26 01:47:53;;;;;;;39.72;27.80;;;;;;;;;;5049908;28;20036;-73
2023/03/26 01:50:57;;;;;;;45.13;29.08;;;12.50;99.90;;;;;;5050493;28;20048;-74
2023/03/26 01:54:04;;;;;;;47.88;28.83;;;12.50;99.90;;;;;;5050175;28;20072;-73
2023/03/26 01:57:27;;;;;;;45.47;30.15;;;12.60;99.90;;;;;;5050096;28;20063;-73
2023/03/26 02:00:38;;;;;;;50.40;30.90;;;12.50;99.90;;;;;;5050293;28;20048;-73
2023/03/26 02:04:11;;;;;;;49.13;34.40;;;12.40;99.90;;;;;;5050612;28;20064;-73
2023/03/26 02:07:24;;;;;;;60.47;33.53;;;12.50;99.90;;;;;;5050334;28;20040;-73
2023/03/26 02:10:30;;;;;;;54.50;33.30;;;13.10;99.90;;;;;;5050481;28;20040;-73
2023/03/26 02:13:35;;;;;;;56.50;31.75;;;;;;;;;;5049329;28;20056;-73
2023/03/26 02:16:39;;;;;;;47.33;29.50;;;13.00;99.90;;;;;;5050522;28;20040;-72
2023/03/26 02:19:43;;;;;;;53.33;31.02;;;12.40;99.90;;;;;;5049344;28;20400;-73
2023/03/26 02:22:48;;;;;;;46.33;27.77;;;;;;;;;;5050202;28;20653;-72
2023/03/26 02:25:55;;;;;;;44.63;26.88;;;12.40;99.90;;;;;;5049331;28;20056;-74
2023/03/26 02:29:00;;;;;;;30.17;21.88;;;;;;;;;;5049304;28;20416;-73
2023/03/26 02:32:06;;;;;;;33.38;21.27;;;12.80;99.90;;;;;;5049542;28;20400;-72
2023/03/26 02:35:11;;;;;;;32.40;19.42;;;12.50;99.90;;;;;;5049053;28;20052;-73
2023/03/26 02:38:15;;;;;;;35.55;21.13;;;12.60;99.90;;;;;;5049429;28;20044;-72
2023/03/26 02:41:20;;;;;;;27.25;18.05;;;12.60;99.90;;;;;;5053004;28;20044;-73
2023/03/26 02:44:34;;;;;;;27.65;18.65;;;12.50;99.90;;;;;;5053112;28;20508;-72
2023/03/26 02:47:38;;;;;;;26.13;18.48;;;12.50;99.90;;;;;;5053448;28;20040;-73
2023/03/26 02:51:05;;;;;;;32.38;20.13;;;12.50;99.90;;;;;;5053576;28;20036;-73
2023/03/26 02:54:17;;;;;;;40.45;22.85;;;11.80;99.90;;;;;;5052520;28;20051;-73
2023/03/26 02:57:24;;;;;;;31.98;19.27;;;;;;;;;;5052856;28;20044;-73
2023/03/26 03:00:55;;;;;;;25.42;16.63;;;12.50;99.90;;;;;;5053686;28;20036;-73
2023/03/26 03:04:12;;;;;;;26.60;15.02;;;;;;;;;;5052304;28;20052;-73
2023/03/26 03:07:19;;;;;;;20.45;14.43;;;12.20;99.90;;;;;;5041237;28;20036;-72
2023/03/26 03:10:26;;;;;;;24.55;14.60;;;11.80;99.90;;;;;;5041255;28;20044;-73
2023/03/26 03:13:57;;;;;;;19.60;12.57;;;12.00;99.90;;;;;;5052363;28;20051;-72
2023/03/26 03:17:05;;;;;;;17.67;12.38;;;12.10;99.90;;;;;;5052143;28;20043;-74
2023/03/26 03:20:10;;;;;;;18.75;12.68;;;12.20;99.90;;;;;;5052220;28;20049;-72
2023/03/26 03:23:16;;;;;;;16.77;12.35;;;12.20;99.90;;;;;;5051954;28;20068;-73
2023/03/26 03:26:26;;;;;;;18.75;12.38;;;12.20;99.90;;;;;;5052092;28;20056;-73
2023/03/26 03:29:31;;;;;;;62.50;35.85;;;12.70;99.90;;;;;;5052367;28;20040;-73
2023/03/26 03:32:46;;;;;;;105.93;68.15;;;13.00;99.90;;;;;;5052002;28;20131;-73
2023/03/26 03:35:55;;;;;;;26.95;16.48;;;12.10;99.90;;;;;;5051517;28;20080;-73
2023/03/26 03:39:01;;;;;;;30.40;16.23;;;12.00;99.90;;;;;;5051247;28;20048;-73
2023/03/26 03:42:05;;;;;;;26.10;16.00;;;12.00;99.90;;;;;;5039841;28;20040;-73
2023/03/26 03:45:10;;;;;;;22.20;14.10;;;11.90;99.90;;;;;;5051862;28;20043;-73
2023/03/26 03:48:48;;;;;;;25.70;13.18;;;12.00;99.90;;;;;;5052183;28;20044;-73
2023/03/26 03:51:53;;;;;;;25.17;13.43;;;12.40;99.90;;;;;;5051399;28;20048;-72
2023/03/26 03:55:05;;;;;;;18.30;12.45;;;;;;;;;;5051925;28;20099;-72
2023/03/26 03:58:30;;;;;;;18.90;11.68;;;12.50;99.90;;;;;;5051544;28;20039;-73
2023/03/26 04:01:45;;;;;;;19.20;13.15;;;11.90;99.90;;;;;;5051684;28;20634;-73
2023/03/26 04:05:00;;;;;;;22.98;12.57;;;13.10;99.90;;;;;;5051525;28;20044;-73
2023/03/26 04:08:05;;;;;;;19.02;11.95;;;11.90;99.90;;;;;;5051137;28;20040;-72
2023/03/26 04:11:19;;;;;;;18.52;11.75;;;11.80;99.90;;;;;;5051142;28;20052;-73
2023/03/26 04:14:43;;;;;;;20.40;12.15;;;11.90;99.90;;;;;;5055644;28;20063;-73
2023/03/26 04:17:53;;;;;;;18.88;11.93;;;;;;;;;;5050957;28;20436;-73
2023/03/26 04:21:01;;;;;;;17.30;10.68;;;11.90;99.90;;;;;;5051283;28;20044;-74
2023/03/26 04:24:08;;;;;;;17.02;11.48;;;11.80;99.90;;;;;;5050836;28;20048;-72
2023/03/26 04:27:46;;;;;;;20.23;12.25;;;11.70;99.90;;;;;;5051553;28;20496;-73
2023/03/26 04:31:02;;;;;;;23.17;14.57;;;12.10;99.90;;;;;;5041556;28;20048;-73
2023/03/26 04:34:25;;;;;;;23.52;12.98;;;11.70;99.90;;;;;;5050823;28;20052;-73
2023/03/26 04:37:43;;;;;;;24.70;13.05;;;11.50;99.90;;;;;;5050733;28;20048;-73
2023/03/26 04:40:50;;;;;;;20.73;13.85;;;;;;;;;;5050502;28;20401;-72
2023/03/26 04:44:15;;;;;;;27.80;13.85;;;11.80;99.90;;;;;;5051554;28;20504;-72
2023/03/26 04:47:28;;;;;;;20.00;13.32;;;;;;;;;;5050329;28;20056;-73
2023/03/26 04:50:32;;;;;;;21.48;12.88;;;11.50;99.90;;;;;;5051391;28;20123;-73
2023/03/26 04:53:36;;;;;;;19.98;12.85;;;11.40;99.90;;;;;;5050482;28;20064;-73
2023/03/26 04:57:03;;;;;;;22.17;13.60;;;11.60;99.90;;;;;;5050409;28;20052;-72
2023/03/26 05:00:14;;;;;;;20.77;13.18;;;11.50;99.90;;;;;;5051424;28;20052;-74
2023/03/26 05:03:19;;;;;;;22.15;12.55;;;11.40;99.90;;;;;;5049797;28;20401;-73
2023/03/26 05:06:27;;;;;;;20.52;13.68;;;11.40;99.90;;;;;;5050450;28;20052;-73
2023/03/26 05:09:32;;;;;;;18.23;13.23;;;11.40;99.90;;;;;;5050395;28;20047;-73
2023/03/26 05:12:50;;;;;;;21.45;12.75;;;11.50;99.90;;;;;;5050115;28;20048;-72
2023/03/26 05:15:59;;;;;;;23.33;12.68;;;11.40;99.90;;;;;;5050225;28;20392;-73
2023/03/26 05:19:11;;;;;;;17.45;12.68;;;11.80;99.90;;;;;;5050277;28;20059;-73
2023/03/26 05:22:15;;;;;;;22.70;13.00;;;12.00;99.90;;;;;;5050731;28;20512;-73
2023/03/26 05:25:40;;;;;;;17.88;11.82;;;12.50;99.90;;;;;;5051199;28;20051;-73
2023/03/26 05:28:51;;;;;;;19.92;12.25;;;12.90;99.60;;;;;;5049645;28;20048;-73
2023/03/26 05:32:10;;;;;;;19.23;11.85;;;13.50;99.00;;;;;;5049881;28;20097;-72
2023/03/26 05:35:18;;;;;;;16.30;11.10;;;14.80;97.10;;;;;;5050015;28;20083;-73
2023/03/26 05:38:22;;;;;;;16.08;10.73;;;15.60;95.00;;;;;;5038539;28;20036;-73
2023/03/26 05:41:27;;;;;;;19.27;11.75;;;15.90;94.50;;;;;;5049780;28;20043;-73
2023/03/26 05:44:31;;;;;;;19.92;11.63;;;16.40;94.00;;;;;;5049833;28;20180;-74
2023/03/26 05:47:39;;;;;;;16.25;12.40;;;;;;;;;;5049875;28;20044;-72
2023/03/26 05:50:43;;;;;;;28.98;15.02;;;16.30;93.60;;;;;;5050013;28;20064;-72
2023/03/26 05:53:47;;;;;;;38.90;21.75;;;16.40;93.70;;;;;;5050316;28;20400;-72
2023/03/26 05:57:10;;;;;;;21.42;14.73;;;16.50;93.40;;;;;;5050668;28;20044;-73
2023/03/26 06:00:32;;;;;;;21.58;13.68;;;16.40;93.80;;;;;;5049819;28;20060;-74
2023/03/26 06:03:38;;;;;;;22.05;13.73;;;17.00;93.40;;;;;;5049669;28;20202;-74
2023/03/26 06:06:51;;;;;;;25.42;14.68;;;17.30;92.50;;;;;;5039197;28;20036;-72
2023/03/26 06:09:56;;;;;;;20.77;12.93;;;17.30;92.80;;;;;;5038350;28;20048;-73
2023/03/26 06:12:59;;;;;;;18.85;13.43;;;17.60;93.00;;;;;;5050442;28;20048;-73
2023/03/26 06:16:04;;;;;;;30.20;15.25;;;18.10;92.40;;;;;;5053724;28;20048;-74
2023/03/26 06:19:11;;;;;;;24.30;15.63;;;18.30;92.20;;;;;;5054317;28;20048;-73
2023/03/26 06:22:27;;;;;;;39.45;18.20;;;18.40;92.10;;;;;;5054290;28;20147;-73
2023/03/26 06:25:56;;;;;;;28.80;16.92;;;18.50;92.50;;;;;;5053798;28;20040;-73
2023/03/26 06:29:26;;;;;;;26.30;16.23;;;18.30;92.40;;;;;;5054468;28;20060;-73
2023/03/26 06:32:53;;;;;;;25.67;16.77;;;18.40;92.90;;;;;;5049506;28;20056;-73
2023/03/26 06:36:01;;;;;;;25.17;15.90;;;18.40;92.90;;;;;;5053374;28;20047;-73
2023/03/26 06:39:05;;;;;;;22.90;15.05;;;18.60;92.70;;;;;;5053614;28;20040;-73
2023/03/26 06:42:09;;;;;;;30.92;15.55;;;18.60;93.10;;;;;;5053240;28;20393;-73
2023/03/26 06:45:32;;;;;;;29.48;16.83;;;18.60;92.70;;;;;;5053829;28;20047;-73
2023/03/26 06:48:55;;;;;;;26.90;15.52;;;18.70;92.60;;;;;;5053690;28;20569;-72
2023/03/26 06:52:20;;;;;;;25.02;14.43;;;18.60;92.60;;;;;;5052706;28;20568;-73
2023/03/26 06:55:52;;;;;;;20.92;13.88;;;18.70;92.50;;;;;;5053205;28;20127;-73
2023/03/26 06:58:59;;;;;;;20.48;13.30;;;18.90;92.30;;;;;;5053792;28;20063;-73
2023/03/26 07:02:21;;;;;;;27.00;12.43;;;18.90;92.50;;;;;;5053649;28;20060;-73
2023/03/26 07:05:44;;;;;;;20.70;11.45;;;19.20;91.70;;;;;;5052750;28;20036;-72
2023/03/26 07:09:07;;;;;;;20.20;11.38;;;19.30;91.90;;;;;;5052676;28;20203;-73
2023/03/26 07:12:30;;;;;;;26.48;10.93;;;19.40;91.80;;;;;;5053537;28;20052;-73
2023/03/26 07:16:03;;;;;;;21.38;10.88;;;19.30;92.20;;;;;;5027963;28;20051;-73
2023/03/26 07:19:32;;;;;;;21.00;10.52;;;19.60;92.00;;;;;;5052388;28;20040;-73
2023/03/26 07:22:37;;;;;;;18.25;9.82;;;19.80;91.70;;;;;;5052291;28;20048;-73
2023/03/26 07:25:44;;;;;;;23.52;10.18;;;19.90;91.30;;;;;;5052320;28;20040;-73
2023/03/26 07:29:44;;;;;;;31.50;13.88;;;19.80;91.90;;;;;;5053132;28;20214;-72
2023/03/26 07:33:21;;;;;;;21.08;10.07;;;20.00;92.00;;;;;;5052635;28;20048;-73
2023/03/26 07:36:51;;;;;;;25.58;10.57;;;20.00;91.70;;;;;;5052934;28;20059;-72
2023/03/26 07:40:42;;;;;;;20.15;9.30;;;20.20;91.90;;;;;;5052001;28;20044;-73
2023/03/26 07:44:26;;;;;;;23.17;9.77;;;20.60;91.80;;;;;;5051710;28;20507;-73
2023/03/26 07:47:55;;;;;;;25.80;8.40;;;20.80;91.30;;;;;;5051783;28;20048;-73
2023/03/26 07:51:17;;;;;;;19.10;5.85;;;21.10;90.90;;;;;;5051899;28;20048;-73
2023/03/26 07:54:38;;;;;;;12.52;5.63;;;21.50;89.90;;;;;;5052493;28;20055;-72
2023/03/26 07:57:48;;;;;;;16.77;5.75;;;21.70;88.00;;;;;;5052225;28;20044;-72
2023/03/26 08:01:33;;;;;;;18.55;6.38;;;21.80;87.70;;;;;;5051629;28;20052;-73
2023/03/26 08:04:37;;;;;;;14.20;5.13;;;21.80;87.20;;;;;;5051394;28;20045;-73
2023/03/26 08:08:33;;;;;;;20.67;6.22;;;21.70;87.70;;;;;;5051361;28;20040;-72
2023/03/26 08:12:22;;;;;;;17.08;5.78;;;21.50;88.00;;;;;;5052141;28;20032;-73
2023/03/26 08:15:40;;;;;;;18.65;5.63;;;21.00;89.10;;;;;;5052095;28;20056;-73
2023/03/26 08:18:55;;;;;;;18.13;5.65;;;20.90;90.00;;;;;;5051789;28;20040;-72
2023/03/26 08:22:26;;;;;;;23.13;6.00;;;21.00;89.50;;;;;;5051768;28;20052;-73
2023/03/26 08:25:48;;;;;;;19.42;6.20;;;20.50;89.60;;;;;;5052247;28;20048;-73
2023/03/26 08:29:12;;;;;;;16.42;5.15;;;20.20;90.50;;;;;;5039293;28;20662;-73
2023/03/26 08:32:18;;;;;;;28.25;6.40;;;20.00;90.70;;;;;;5051640;28;20044;-72
2023/03/26 08:35:25;;;;;;;24.17;6.47;;;19.90;90.70;;;;;;5050820;28;20052;-73
2023/03/26 08:38:28;;;;;;;22.02;6.63;;;19.80;91.10;;;;;;5051023;28;20056;-73
2023/03/26 08:41:48;;;;;;;22.60;7.10;;;19.70;91.60;;;;;;5051375;28;20044;-73
2023/03/26 08:44:55;;;;;;;18.63;6.32;;;19.80;91.80;;;;;;5051598;28;20052;-72
2023/03/26 08:48:28;;;;;;;24.15;6.43;;;19.90;91.80;;;;;;5050587;28;20048;-72
2023/03/26 08:52:11;;;;;;;30.33;8.15;;;19.80;91.80;;;;;;5051447;28;20404;-72
2023/03/26 08:55:45;;;;;;;22.30;6.63;;;19.90;91.80;;;;;;5050550;28;20059;-72
2023/03/26 08:59:27;;;;;;;23.85;6.75;;;19.90;91.40;;;;;;5051129;28;20044;-73
2023/03/26 09:03:00;;;;;;;24.25;6.97;;;19.80;91.60;;;;;;5051152;28;20052;-72
2023/03/26 09:06:32;;;;;;;20.73;6.28;;;19.80;91.50;;;;;;5051110;28;20043;-73
2023/03/26 09:09:45;;;;;;;;;;;19.80;91.50;;;;;;5051477;28;20512;-72
2023/03/26 09:12:49;;;;;;;22.13;6.65;;;19.70;91.30;;;;;;5049907;28;19916;-73
2023/03/26 09:16:05;;;;;;;27.70;6.60;;;19.70;91.60;;;;;;5051006;28;20056;-73
2023/03/26 09:19:51;;;;;;;22.33;6.78;;;19.70;91.40;;;;;;5050935;28;20048;-72
2023/03/26 09:23:17;;;;;;;20.45;6.57;;;19.80;91.40;;;;;;5037926;28;20068;-73
2023/03/26 09:26:49;;;;;;;23.50;6.93;;;19.80;91.30;;;;;;5050778;28;20480;-72
2023/03/26 09:29:52;;;;;;;18.63;5.78;;;19.80;91.60;;;;;;5050552;28;20040;-72
2023/03/26 09:33:19;;;;;;;24.83;5.82;;;19.90;91.30;;;;;;5050483;28;20075;-71
2023/03/26 09:36:48;;;;;;;26.52;5.63;;;20.00;91.40;;;;;;5050910;28;20242;-73
2023/03/26 09:40:16;;;;;;;21.35;5.90;;;20.10;91.10;;;;;;5049957;28;20040;-73
2023/03/26 09:43:35;;;;;;;21.13;5.93;;;20.20;90.70;;;;;;5050291;28;20044;-74
2023/03/26 09:47:07;;;;;;;18.00;5.47;;;20.30;90.90;;;;;;5049666;28;20048;-73
2023/03/26 09:50:52;;;;;;;24.92;5.80;;;20.30;90.80;;;;;;5049983;28;20060;-73
2023/03/26 09:53:56;;;;;;;29.73;5.90;;;20.50;90.80;;;;;;5049169;28;20052;-73
2023/03/26 09:57:11;;;;;;;29.75;5.63;;;20.80;90.50;;;;;;5050694;28;20515;-71
2023/03/26 10:00:30;;;;;;;27.13;5.47;;;21.20;90.30;;;;;;5049322;28;20048;-74
2023/03/26 10:03:56;;;;;;;25.73;6.78;;;21.50;90.10;;;;;;5050268;28;20048;-74
2023/03/26 10:07:32;;;;;;;18.52;5.32;;;21.70;89.20;;;;;;5050563;28;20048;-73
2023/03/26 10:11:16;;;;;;;25.45;6.18;;;21.90;88.80;;;;;;5050297;28;20044;-73
2023/03/26 10:14:34;;;;;;;38.40;8.63;;;21.80;89.70;;;;;;5049984;28;20047;-73
2023/03/26 10:18:07;;;;;;;20.60;5.10;;;21.80;88.70;;;;;;5049320;28;20044;-73
2023/03/26 10:21:29;;;;;;;;;;;21.80;88.70;;;;;;5050691;28;20056;-72
2023/03/26 10:24:49;;;;;;;27.25;6.10;;;21.70;88.00;;;;;;5049989;28;19928;-73
2023/03/26 10:28:22;;;;;;;30.45;5.43;;;21.70;88.50;;;;;;5050205;28;20044;-73
2023/03/26 10:31:42;;;;;;;19.17;4.38;;;21.70;89.00;;;;;;5037140;28;20052;-73
2023/03/26 10:35:19;;;;;;;26.00;5.07;;;21.80;89.20;;;;;;5049086;28;20052;-74
2023/03/26 10:38:32;;;;;;;31.10;5.15;;;21.80;88.60;;;;;;5049823;28;20036;-74
2023/03/26 10:42:13;;;;;;;26.52;5.28;;;21.90;88.50;;;;;;5050379;28;20052;-73
2023/03/26 10:45:44;;;;;;;21.00;4.60;;;21.90;88.70;;;;;;5050272;28;20511;-72
2023/03/26 10:49:24;;;;;;;28.07;5.80;;;22.00;88.40;;;;;;5049281;28;20480;-72
2023/03/26 10:52:40;;;;;;;29.40;4.78;;;22.00;88.00;;;;;;5049325;28;20048;-73
2023/03/26 10:55:50;;;;;;;25.30;5.03;;;21.90;88.40;;;;;;5050056;28;20056;-73
2023/03/26 10:58:56;;;;;;;25.03;5.47;;;21.70;87.70;;;;;;5049126;28;20120;-73
2023/03/26 11:02:22;;;;;;;34.72;4.97;;;21.70;88.60;;;;;;5052682;28;20290;-73
2023/03/26 11:05:47;;;;;;;29.25;4.78;;;21.50;88.00;;;;;;5053306;28;20439;-72
2023/03/26 11:09:18;;;;;;;29.98;5.10;;;21.50;87.80;;;;;;5053664;28;20070;-72
2023/03/26 11:12:36;;;;;;;29.43;5.67;;;21.50;88.20;;;;;;5053240;28;20048;-74
2023/03/26 11:16:00;;;;;;;21.60;4.75;;;21.40;88.40;;;;;;5053092;28;20294;-73
2023/03/26 11:19:25;;;;;;;20.92;4.20;;;21.40;88.60;;;;;;5053349;28;20044;-73
2023/03/26 11:22:47;;;;;;;34.15;5.80;;;21.40;88.60;;;;;;5047157;28;20051;-72
2023/03/26 11:25:57;;;;;;;42.42;5.28;;;21.40;88.10;;;;;;5052220;28;20052;-73
2023/03/26 11:29:26;;;;;;;31.27;5.10;;;21.40;88.30;;;;;;5052010;28;20066;-73
2023/03/26 11:32:41;;;;;;;27.20;5.38;;;21.20;88.40;;;;;;5052887;28;20041;-73
2023/03/26 11:35:49;;;;;;;26.58;4.97;;;21.10;88.60;;;;;;5052683;28;20056;-73
2023/03/26 11:38:57;;;;;;;30.45;5.18;;;21.00;88.80;;;;;;5052969;28;20044;-72
2023/03/26 11:42:13;;;;;;;22.30;3.97;;;20.90;88.80;;;;;;5052264;28;20052;-72
2023/03/26 11:45:23;;;;;;;17.15;5.22;;;20.80;89.20;;;;;;5052679;28;20496;-72
2023/03/26 11:48:35;;;;;;;19.52;4.03;;;20.70;89.40;;;;;;5052502;28;20040;-73
2023/03/26 11:51:41;;;;;;;24.33;5.63;;;20.60;89.10;;;;;;5052411;28;20535;-74
2023/03/26 11:54:49;;;;;;;22.17;4.35;;;20.60;89.30;;;;;;5051558;28;20056;-72
2023/03/26 11:57:58;;;;;;;24.48;4.20;;;20.50;88.60;;;;;;5052137;28;20048;-73
2023/03/26 12:01:15;;;;;;;24.63;4.55;;;20.50;88.80;;;;;;5052685;28;20044;-74
2023/03/26 12:04:26;;;;;;;22.38;4.47;;;20.50;89.20;;;;;;5052860;28;20063;-74
2023/03/26 12:07:32;;;;;;;21.42;4.95;;;20.50;87.90;;;;;;5052024;28;20040;-71
2023/03/26 12:10:41;;;;;;;21.27;4.82;;;20.50;88.00;;;;;;5052267;28;20365;-73
2023/03/26 12:13:54;;;;;;;27.88;4.25;;;20.50;87.50;;;;;;5051274;28;20064;-74
2023/03/26 12:17:01;;;;;;;26.92;3.95;;;20.50;87.70;;;;;;5052478;28;20047;-74
2023/03/26 12:20:25;;;;;;;26.13;5.22;;;20.40;87.20;;;;;;5051368;28;20048;-73
2023/03/26 12:23:36;;;;;;;19.70;5.35;;;20.40;88.20;;;;;;5051567;28;20071;-73
2023/03/26 12:26:45;;;;;;;31.20;4.30;;;20.30;87.80;;;;;;5051609;28;20396;-73
2023/03/26 12:30:07;;;;;;;18.77;4.35;;;20.30;88.70;;;;;;5051213;28;20047;-73
2023/03/26 12:33:27;;;;;;;22.00;5.00;;;20.20;88.90;;;;;;5050908;28;20040;-72
2023/03/26 12:36:34;;;;;;;21.77;4.45;;;20.10;88.80;;;;;;5051013;28;20052;-73
2023/03/26 12:39:42;;;;;;;26.05;5.28;;;20.00;89.50;;;;;;5039255;28;20036;-72
2023/03/26 12:42:51;;;;;;;24.00;3.72;;;19.90;90.00;;;;;;5050830;28;20051;-71
2023/03/26 12:45:57;;;;;;;25.17;4.43;;;20.00;89.90;;;;;;5050535;28;20040;-72
2023/03/26 12:49:05;;;;;;;17.08;4.50;;;19.90;89.80;;;;;;5050370;28;20044;-73
2023/03/26 12:52:18;;;;;;;22.33;4.57;;;19.90;89.30;;;;;;5051330;28;20042;-72
2023/03/26 12:55:43;;;;;;;19.20;3.97;;;19.90;90.10;;;;;;5051224;28;20060;-72
2023/03/26 12:59:05;;;;;;;27.10;4.30;;;19.90;89.40;;;;;;5051144;28;20044;-72
2023/03/26 13:02:15;;;;;;;14.85;4.55;;;19.90;89.40;;;;;;5051260;28;20056;-70
2023/03/26 13:05:53;;;;;;;20.05;3.90;;;19.80;89.20;;;;;;5051158;28;20055;-73
2023/03/26 13:09:28;;;;;;;17.73;4.28;;;19.90;88.10;;;;;;5051406;28;20060;-71
2023/03/26 13:12:45;;;;;;;22.30;4.07;;;19.90;87.30;;;;;;5050885;28;20346;-71
2023/03/26 13:15:52;;;;;;;21.63;4.60;;;19.90;87.50;;;;;;5050798;28;20123;-73
2023/03/26 13:19:11;;;;;;;26.15;4.80;;;19.90;87.20;;;;;;5050019;28;20361;-72
2023/03/26 13:22:36;;;;;;;20.67;3.67;;;19.80;88.10;;;;;;5049775;28;20059;-73
2023/03/26 13:25:55;;;;;;;26.38;4.18;;;19.70;88.70;;;;;;5049675;28;20052;-71
2023/03/26 13:29:22;;;;;;;17.90;4.07;;;19.70;90.00;;;;;;5051021;28;20052;-72
2023/03/26 13:32:38;;;;;;;23.73;4.75;;;19.60;90.10;;;;;;5049918;28;20068;-73
2023/03/26 13:35:59;;;;;;;18.35;4.07;;;19.70;90.00;;;;;;5050514;28;20060;-73
2023/03/26 13:39:26;;;;;;;23.48;3.95;;;19.70;90.20;;;;;;5049822;28;20130;-72
2023/03/26 13:42:48;;;;;;;17.67;3.70;;;19.60;89.80;;;;;;5038081;28;20111;-72
2023/03/26 13:46:08;;;;;;;17.33;3.63;;;19.60;90.40;;;;;;5050492;28;20381;-73
2023/03/26 13:49:15;;;;;;;24.52;4.70;;;19.60;89.90;;;;;;5050493;28;20052;-72
2023/03/26 13:52:30;;;;;;;20.65;3.90;;;19.50;90.60;;;;;;5050490;28;20036;-73
2023/03/26 13:55:39;;;;;;;23.33;4.75;;;19.50;90.80;;;;;;5050354;28;20060;-73
2023/03/26 13:58:58;;;;;;;18.55;4.00;;;19.50;90.60;;;;;;5049579;28;20151;-71
2023/03/26 14:02:13;;;;;;;22.98;3.90;;;19.50;90.10;;;;;;5050557;28;20060;-73
2023/03/26 14:05:33;;;;;;;18.05;4.07;;;19.50;90.10;;;;;;5050441;28;20040;-72
2023/03/26 14:08:43;;;;;;;19.63;3.83;;;19.40;90.20;;;;;;5049357;28;20048;-73
2023/03/26 14:12:17;;;;;;;21.52;4.45;;;19.20;90.10;;;;;;5050005;28;20036;-73
2023/03/26 14:15:29;;;;;;;18.10;3.47;;;19.10;90.10;;;;;;5049367;28;20068;-72
2023/03/26 14:18:43;;;;;;;17.38;3.97;;;19.00;90.00;;;;;;5050517;28;20052;-72
2023/03/26 14:22:11;;;;;;;24.70;4.38;;;18.90;90.40;;;;;;5050518;28;20044;-73
2023/03/26 14:25:41;;;;;;;23.02;3.50;;;18.80;90.30;;;;;;5050359;28;20166;-72
2023/03/26 14:29:07;;;;;;;33.40;3.95;;;18.80;90.00;;;;;;5055530;28;20052;-71
2023/03/26 14:32:57;;;;;;;24.85;3.78;;;18.70;90.40;;;;;;5050039;28;20064;-72
2023/03/26 14:36:06;;;;;;;19.17;3.30;;;18.70;90.70;;;;;;5051751;28;20056;-71
2023/03/26 14:39:44;;;;;;;27.58;4.43;;;18.70;90.50;;;;;;5052901;28;20044;-71
2023/03/26 14:43:29;;;;;;;25.27;3.60;;;18.70;90.70;;;;;;5054020;28;20388;-73
2023/03/26 14:47:00;;;;;;;19.67;3.22;;;18.70;90.40;;;;;;5053753;28;20151;-72
2023/03/26 14:50:21;;;;;;;;;;;18.80;90.30;;;;;;5054004;28;20040;-72
2023/03/26 14:53:43;;;;;;;24.45;2.90;;;18.80;89.60;;;;;;5053715;28;20289;-71
2023/03/26 14:56:59;;;;;;;;;;;18.80;89.50;;;;;;5053818;28;20055;-71
2023/03/26 15:00:15;;;;;;;14.95;3.10;;;18.80;90.00;;;;;;5053791;28;19920;-71
2023/03/26 15:03:38;;;;;;;17.55;3.15;;;18.80;90.20;;;;;;5053874;28;20048;-72
2023/03/26 15:06:51;;;;;;;20.70;4.18;;;18.70;90.30;;;;;;5053451;28;20083;-72
2023/03/26 15:10:13;;;;;;;13.23;2.92;;;18.70;90.10;;;;;;5052958;28;20052;-73
2023/03/26 15:13:32;;;;;;;11.30;2.83;;;18.80;90.40;;;;;;5053124;28;20512;-72
2023/03/26 15:16:55;;;;;;;39.83;4.85;;;18.70;90.50;;;;;;5053023;28;20060;-72
2023/03/26 15:20:11;;;;;;;18.83;4.05;;;18.80;90.70;;;;;;5053067;28;20044;-72
2023/03/26 15:23:53;;;;;;;16.75;2.78;;;18.70;90.20;;;;;;5052989;28;20059;-72
2023/03/26 15:27:12;;;;;;;18.33;3.08;;;18.60;90.80;;;;;;5052813;28;20055;-72
2023/03/26 15:30:52;;;;;;;20.88;4.05;;;18.60;90.80;;;;;;5053035;28;20048;-73
2023/03/26 15:34:26;;;;;;;14.07;3.10;;;18.60;90.90;;;;;;5052695;28;20040;-72
2023/03/26 15:37:42;;;;;;;23.77;3.72;;;18.60;90.80;;;;;;5052651;28;20519;-72
2023/03/26 15:41:11;;;;;;;19.85;3.33;;;18.60;90.60;;;;;;5051960;28;20502;-72
2023/03/26 15:44:24;;;;;;;14.35;2.75;;;18.50;90.50;;;;;;5051920;28;20051;-72
2023/03/26 15:47:31;;;;;;;15.10;2.83;;;18.40;90.10;;;;;;5051771;28;20043;-73
2023/03/26 15:50:59;;;;;;;11.48;2.78;;;18.40;90.20;;;;;;5052817;28;20413;-72
2023/03/26 15:54:25;;;;;;;14.55;3.05;;;18.40;90.10;;;;;;5052347;28;20064;-73
2023/03/26 15:58:01;;;;;;;14.45;2.60;;;18.40;90.10;;;;;;5052497;28;20040;-72
2023/03/26 16:01:17;;;;;;;11.63;3.60;;;18.40;90.10;;;;;;5052601;28;20040;-72
2023/03/26 16:04:37;;;;;;;13.45;2.97;;;18.40;88.80;;;;;;5052379;28;20048;-72
2023/03/26 16:07:57;;;;;;;22.42;3.13;;;18.30;89.00;;;;;;5052218;28;20064;-73
2023/03/26 16:11:06;;;;;;;13.25;3.58;;;18.20;88.60;;;;;;5051958;28;20142;-71
2023/03/26 16:14:41;;;;;;;12.70;3.00;;;18.20;88.70;;;;;;5051761;28;20048;-72
2023/03/26 16:18:03;;;;;;;17.50;2.50;;;18.20;88.50;;;;;;5051300;28;20044;-72
2023/03/26 16:21:35;;;;;;;16.45;3.97;;;18.20;87.90;;;;;;5051786;28;20526;-71
2023/03/26 16:24:45;;;;;;;12.48;2.40;;;18.20;87.90;;;;;;5051840;28;20048;-72
2023/03/26 16:28:09;;;;;;;14.38;2.50;;;18.20;87.60;;;;;;5051738;28;20207;-73
2023/03/26 16:31:13;;;;;;;12.70;3.08;;;18.10;87.60;;;;;;5051716;28;20052;-73
2023/03/26 16:34:26;;;;;;;14.52;2.55;;;18.10;87.80;;;;;;5051790;28;20070;-71
2023/03/26 16:37:36;;;;;;;9.98;2.38;;;18.10;88.80;;;;;;5051739;28;20065;-72
2023/03/26 16:41:01;;;;;;;17.55;3.45;;;18.00;89.00;;;;;;5051448;28;20052;-73
2023/03/26 16:44:24;;;;;;;16.05;2.88;;;17.90;89.90;;;;;;5051716;28;20048;-72
2023/03/26 16:47:41;;;;;;;20.67;3.05;;;17.90;90.30;;;;;;5051339;28;20043;-72
2023/03/26 16:51:15;;;;;;;19.50;4.88;;;17.80;90.40;;;;;;5051340;28;20044;-72
2023/03/26 16:54:31;;;;;;;20.58;3.53;;;17.80;90.80;;;;;;5051109;28;20048;-73
2023/03/26 16:58:08;;;;;;;16.52;2.90;;;17.70;90.90;;;;;;5051110;28;20060;-73